createdAt,value
2022-07-31T00:00:51.995Z,6.45
2022-07-31T00:03:20.125Z,6.32
2022-07-31T00:05:48.140Z,6.63
2022-07-31T00:08:16.110Z,6.75
2022-07-31T00:10:44.128Z,8.15
2022-07-31T00:13:13.662Z,8.05
2022-07-31T00:15:42.197Z,8.18
2022-07-31T00:18:10.267Z,8.10
2022-07-31T00:20:38.376Z,8.70
2022-07-31T00:23:06.656Z,7.53
2022-07-31T00:25:34.936Z,7.40
2022-07-31T00:28:03.244Z,8.98
2022-07-31T00:30:32.809Z,7.78
2022-07-31T00:33:00.800Z,8.00
2022-07-31T00:35:28.938Z,7.88
2022-07-31T00:38:24.709Z,7.65
2022-07-31T00:40:49.121Z,7.63
2022-07-31T00:43:19.082Z,7.65
2022-07-31T00:45:58.462Z,7.72
2022-07-31T00:50:56.643Z,6.28
2022-07-31T00:53:25.829Z,5.97
2022-07-31T00:55:54.052Z,5.63
2022-07-31T00:58:22.134Z,5.60
2022-07-31T01:00:52.696Z,5.38
2022-07-31T01:03:20.882Z,5.72
2022-07-31T01:05:49.240Z,5.07
2022-07-31T01:08:17.414Z,5.10
2022-07-31T01:10:52.258Z,5.38
2022-07-31T01:13:29.508Z,5.80
2022-07-31T01:16:02.729Z,5.95
2022-07-31T01:18:34.765Z,5.45
2022-07-31T01:21:07.165Z,5.40
2022-07-31T01:24:13.761Z,6.20
2022-07-31T01:27:26.955Z,5.40
2022-07-31T01:30:00.448Z,5.93
2022-07-31T01:32:32.270Z,5.93
2022-07-31T01:35:06.500Z,5.90
2022-07-31T01:37:38.424Z,5.40
2022-07-31T01:40:11.197Z,5.55
2022-07-31T01:42:42.155Z,6.05
2022-07-31T01:45:14.816Z,5.35
2022-07-31T01:47:44.733Z,6.13
2022-07-31T01:50:43.333Z,5.90
2022-07-31T01:53:03.372Z,6.40
2022-07-31T01:56:02.563Z,5.85
2022-07-31T01:58:23.702Z,5.93
2022-07-31T02:00:55.183Z,5.45
2022-07-31T02:03:44.373Z,6.00
2022-07-31T02:06:17.411Z,6.57
2022-07-31T02:08:47.279Z,5.70
2022-07-31T02:11:19.430Z,5.97
2022-07-31T02:13:49.534Z,6.75
2022-07-31T02:16:20.722Z,6.15
2022-07-31T02:18:55.315Z,6.25
2022-07-31T02:21:25.857Z,6.85
2022-07-31T02:23:54.791Z,6.97
2022-07-31T02:26:23.941Z,7.28
2022-07-31T02:28:53.045Z,7.75
2022-07-31T02:31:24.552Z,8.05
2022-07-31T02:33:54.109Z,8.23
2022-07-31T02:36:23.348Z,6.80
2022-07-31T02:38:53.263Z,7.60
2022-07-31T02:41:22.779Z,8.10
2022-07-31T02:43:51.914Z,8.02
2022-07-31T02:46:24.445Z,7.95
2022-07-31T02:48:54.296Z,8.43
2022-07-31T02:51:25.308Z,7.18
2022-07-31T02:53:55.882Z,7.32
2022-07-31T02:56:27.275Z,7.47
2022-07-31T02:58:55.804Z,8.73
2022-07-31T03:01:29.904Z,7.70
2022-07-31T03:03:58.169Z,7.93
2022-07-31T03:06:29.443Z,6.75
2022-07-31T03:08:57.864Z,7.10
2022-07-31T03:11:27.235Z,6.97
2022-07-31T03:13:58.256Z,7.50
2022-07-31T03:16:27.896Z,7.50
2022-07-31T03:18:58.628Z,7.68
2022-07-31T03:21:27.246Z,7.72
2022-07-31T03:23:56.222Z,8.23
2022-07-31T03:26:24.857Z,9.10
2022-07-31T03:28:53.011Z,8.80
2022-07-31T03:31:21.283Z,9.23
2022-07-31T03:33:49.411Z,8.95
2022-07-31T03:36:19.449Z,7.72
2022-07-31T03:38:50.465Z,8.10
2022-07-31T03:41:42.162Z,8.00
2022-07-31T03:44:11.589Z,7.88
2022-07-31T03:46:40.046Z,8.43
2022-07-31T03:49:09.208Z,8.95
2022-07-31T03:51:38.959Z,8.25
2022-07-31T03:54:07.250Z,8.98
2022-07-31T03:57:02.022Z,9.15
2022-07-31T03:59:34.812Z,10.55
2022-07-31T04:02:11.444Z,10.23
2022-07-31T04:04:47.420Z,11.63
2022-07-31T04:07:17.322Z,11.15
2022-07-31T04:09:45.717Z,10.60
2022-07-31T04:12:18.162Z,9.93
